createdAt,value
2018-09-22T00:01:03.789Z,14.13
2018-09-22T00:03:31.060Z,17.90
2018-09-22T00:05:58.336Z,14.00
2018-09-22T00:10:52.721Z,11.80
2018-09-22T00:13:20.032Z,9.75
2018-09-22T00:15:47.321Z,12.50
2018-09-22T00:18:14.593Z,13.20
2018-09-22T00:20:41.901Z,12.20
2018-09-22T00:23:09.185Z,12.80
2018-09-22T00:25:36.471Z,13.75
2018-09-22T00:28:03.780Z,12.70
2018-09-22T00:30:31.061Z,12.55
2018-09-22T00:32:58.374Z,14.00
2018-09-22T00:35:25.676Z,13.70
2018-09-22T00:37:53.309Z,15.70
2018-09-22T00:40:20.597Z,16.45
2018-09-22T00:42:47.891Z,14.65
2018-09-22T00:45:15.209Z,11.13
2018-09-22T00:47:42.498Z,12.83
2018-09-22T00:50:09.786Z,12.77
2018-09-22T00:52:37.065Z,13.60
2018-09-22T00:55:04.468Z,13.93
2018-09-22T00:57:31.756Z,15.30
2018-09-22T00:59:59.054Z,10.90
2018-09-22T01:02:26.332Z,12.13
2018-09-22T01:04:53.612Z,16.50
2018-09-22T01:07:20.908Z,10.00
2018-09-22T01:12:14.968Z,11.90
2018-09-22T01:14:42.241Z,12.05
2018-09-22T01:17:09.542Z,11.83
2018-09-22T01:19:36.849Z,10.83
2018-09-22T01:22:04.137Z,13.27
2018-09-22T01:24:31.440Z,10.40
2018-09-22T01:26:58.776Z,12.33
2018-09-22T01:29:26.057Z,12.73
2018-09-22T01:31:53.336Z,12.37
2018-09-22T01:34:20.612Z,12.43
2018-09-22T01:36:47.989Z,12.87
2018-09-22T01:39:15.277Z,7.90
2018-09-22T01:41:42.554Z,12.60
2018-09-22T01:44:09.881Z,12.60
2018-09-22T01:46:37.209Z,12.83
2018-09-22T01:49:04.533Z,9.07
2018-09-22T01:51:32.536Z,11.17
2018-09-22T01:53:59.876Z,13.30
2018-09-22T01:56:27.245Z,13.33
2018-09-22T01:58:54.532Z,16.07
2018-09-22T02:01:21.853Z,10.70
2018-09-22T02:03:49.120Z,9.13
2018-09-22T02:06:16.405Z,8.53
2018-09-22T02:08:43.697Z,8.03
2018-09-22T02:11:11.013Z,12.23
2018-09-22T02:13:38.320Z,12.27
2018-09-22T02:16:05.688Z,8.97
2018-09-22T02:18:32.965Z,12.00
2018-09-22T02:21:00.266Z,12.25
2018-09-22T02:23:27.556Z,13.30
2018-09-22T02:25:54.930Z,12.67
2018-09-22T02:28:22.284Z,12.87
2018-09-22T02:30:49.601Z,10.50
2018-09-22T02:33:16.996Z,10.90
2018-09-22T02:35:44.278Z,8.80
2018-09-22T02:38:11.618Z,13.10
2018-09-22T02:40:38.904Z,8.25
2018-09-22T02:43:06.200Z,12.87
2018-09-22T02:45:33.476Z,9.70
2018-09-22T02:48:00.762Z,8.30
2018-09-22T02:50:28.045Z,13.45
2018-09-22T02:52:55.367Z,14.20
2018-09-22T02:55:22.668Z,9.70
2018-09-22T02:57:49.941Z,11.80
2018-09-22T03:22:18.302Z,11.30
2018-09-22T03:24:45.577Z,11.40
2018-09-22T03:29:39.612Z,14.50
2018-09-22T03:32:06.936Z,9.33
2018-09-22T03:34:34.222Z,13.90
2018-09-22T03:37:01.516Z,11.25
2018-09-22T03:39:28.850Z,12.25
2018-09-22T03:41:56.141Z,9.60
2018-09-22T03:46:50.204Z,10.50
2018-09-22T03:49:17.502Z,11.55
2018-09-22T03:51:44.776Z,11.60
2018-09-22T03:54:12.067Z,10.20
2018-09-22T03:56:39.368Z,10.05
2018-09-22T03:59:06.648Z,11.10
2018-09-22T04:01:33.937Z,11.30
2018-09-22T04:06:28.037Z,10.60
2018-09-22T04:18:42.368Z,9.13
2018-09-22T04:23:36.417Z,10.10
2018-09-22T04:30:57.580Z,10.40
2018-09-22T04:35:51.641Z,14.00
2018-09-22T04:38:18.948Z,9.90
2018-09-22T04:40:46.240Z,8.20
2018-09-22T04:43:13.525Z,13.73
2018-09-22T04:45:40.832Z,12.90
2018-09-22T04:48:08.137Z,9.37
2018-09-22T04:50:35.444Z,9.97
2018-09-22T04:53:02.748Z,11.43
2018-09-22T04:55:30.061Z,9.87
2018-09-22T04:57:57.340Z,13.07
2018-09-22T05:00:24.624Z,10.10
2018-09-22T05:02:51.921Z,13.97
2018-09-22T05:05:19.217Z,12.93
2018-09-22T05:07:46.500Z,10.00
2018-09-22T05:10:13.790Z,9.50
2018-09-22T05:12:41.085Z,9.90
2018-09-22T05:15:08.377Z,13.30
2018-09-22T05:17:35.664Z,10.13
2018-09-22T05:20:03.013Z,12.63
2018-09-22T05:22:30.337Z,9.70
2018-09-22T05:24:57.619Z,14.67
2018-09-22T05:27:24.908Z,10.77
2018-09-22T05:29:52.180Z,16.57
2018-09-22T05:32:19.482Z,11.33
2018-09-22T05:34:46.833Z,11.67
2018-09-22T05:37:14.133Z,12.20
2018-09-22T05:39:41.437Z,14.57
2018-09-22T05:42:08.713Z,12.67
2018-09-22T05:44:35.999Z,11.53
2018-09-22T05:47:03.305Z,10.83
2018-09-22T05:49:30.605Z,11.43
2018-09-22T05:51:57.897Z,12.47
2018-09-22T05:54:25.176Z,8.10
2018-09-22T05:56:52.484Z,10.37
2018-09-22T05:59:19.756Z,11.53
2018-09-22T06:01:47.065Z,13.53
2018-09-22T06:04:14.374Z,9.67
2018-09-22T06:06:41.666Z,11.50
2018-09-22T06:09:09.784Z,11.93
2018-09-22T06:11:37.125Z,13.03
2018-09-22T06:14:04.494Z,12.90
2018-09-22T06:16:31.841Z,10.67
2018-09-22T06:18:59.128Z,10.70
2018-09-22T06:21:26.406Z,9.90
2018-09-22T06:23:53.722Z,10.10
2018-09-22T06:26:21.005Z,12.90
2018-09-22T06:28:48.394Z,13.13
2018-09-22T06:31:15.662Z,12.70
2018-09-22T06:33:42.952Z,13.40
2018-09-22T06:36:10.257Z,12.97
2018-09-22T06:38:37.565Z,10.93
2018-09-22T06:41:04.840Z,14.57
2018-09-22T06:43:32.117Z,10.53
2018-09-22T06:45:59.409Z,15.50
2018-09-22T06:48:26.709Z,11.03
2018-09-22T06:50:54.002Z,12.43
2018-09-22T06:53:21.329Z,11.63
2018-09-22T06:55:48.607Z,14.53
2018-09-22T06:58:15.952Z,14.80
2018-09-22T07:00:43.272Z,11.07
2018-09-22T07:03:10.575Z,16.80
2018-09-22T07:05:37.876Z,8.27
2018-09-22T07:08:05.161Z,12.10
2018-09-22T07:10:32.449Z,10.13
2018-09-22T07:12:59.744Z,10.17
2018-09-22T07:15:27.049Z,15.43
2018-09-22T07:17:54.351Z,14.77
2018-09-22T07:20:21.641Z,14.97
2018-09-22T07:22:54.693Z,13.47
2018-09-22T07:25:22.033Z,15.80
2018-09-22T07:27:49.316Z,13.43
2018-09-22T07:30:19.582Z,13.53
2018-09-22T07:32:46.937Z,11.13
2018-09-22T07:35:14.248Z,13.37
2018-09-22T07:37:41.597Z,11.53
2018-09-22T07:40:08.932Z,11.60
2018-09-22T07:42:36.245Z,11.53
2018-09-22T07:45:03.613Z,11.90
2018-09-22T07:47:30.883Z,7.80
2018-09-22T07:49:58.199Z,12.27
2018-09-22T07:52:25.525Z,11.73
2018-09-22T07:54:52.817Z,11.53
2018-09-22T07:57:20.121Z,10.00
2018-09-22T07:59:47.465Z,13.37
2018-09-22T08:02:14.739Z,10.80
2018-09-22T08:04:42.076Z,9.07
2018-09-22T08:07:09.413Z,11.60
2018-09-22T08:09:36.745Z,9.00
2018-09-22T08:12:04.041Z,12.57
2018-09-22T08:14:31.377Z,10.53
2018-09-22T08:16:58.693Z,13.43
2018-09-22T08:19:25.996Z,10.13
2018-09-22T08:21:53.288Z,10.20
2018-09-22T08:24:20.657Z,11.10
2018-09-22T08:26:47.997Z,14.57
2018-09-22T08:29:15.297Z,10.20
2018-09-22T08:31:42.684Z,9.10
2018-09-22T08:34:09.969Z,10.70
2018-09-22T08:36:37.414Z,9.97
2018-09-22T08:39:07.282Z,11.20
2018-09-22T08:41:34.605Z,11.80
2018-09-22T08:44:01.946Z,10.40
2018-09-22T08:46:29.228Z,11.83
2018-09-22T08:48:56.630Z,9.77
2018-09-22T08:51:23.929Z,9.10
2018-09-22T08:53:51.221Z,10.03
2018-09-22T08:56:18.546Z,10.10
2018-09-22T08:58:45.841Z,11.20
2018-09-22T09:01:13.161Z,13.10
2018-09-22T09:03:40.462Z,9.85
2018-09-22T09:06:07.769Z,9.60
2018-09-22T09:08:35.065Z,9.70
2018-09-22T09:11:02.388Z,9.05
2018-09-22T09:15:56.488Z,10.47
2018-09-22T09:18:23.774Z,8.30
2018-09-22T09:20:51.078Z,9.60
2018-09-22T09:23:18.346Z,10.30
2018-09-22T09:40:26.316Z,9.75
2018-09-22T09:42:53.665Z,9.70
2018-09-22T09:47:47.704Z,7.73
2018-09-22T09:50:15.016Z,9.37
2018-09-22T09:52:42.317Z,6.10
2018-09-22T09:55:09.644Z,6.97
2018-09-22T09:57:36.950Z,7.60
2018-09-22T10:02:31.245Z,8.73
2018-09-22T10:04:58.550Z,8.43
2018-09-22T10:07:25.855Z,12.00
2018-09-22T10:12:19.964Z,7.70
2018-09-22T10:14:47.253Z,8.03
2018-09-22T10:17:14.566Z,5.93
2018-09-22T10:19:41.982Z,11.50
2018-09-22T10:22:09.272Z,7.40
2018-09-22T10:24:36.596Z,9.70
2018-09-22T10:27:03.920Z,7.87
2018-09-22T10:29:31.352Z,9.27
2018-09-22T10:31:58.715Z,9.57
2018-09-22T10:34:26.020Z,8.33
2018-09-22T10:36:53.311Z,8.80
2018-09-22T10:39:20.602Z,7.33
2018-09-22T10:41:47.880Z,6.73
2018-09-22T10:44:15.169Z,7.47
2018-09-22T10:46:42.468Z,6.70
2018-09-22T10:49:09.771Z,6.17
2018-09-22T10:51:37.079Z,6.37
2018-09-22T10:54:04.389Z,8.23
2018-09-22T10:56:31.714Z,6.27
2018-09-22T10:58:58.992Z,7.73
2018-09-22T11:01:26.284Z,8.97
2018-09-22T11:03:53.573Z,8.20
2018-09-22T11:06:20.855Z,10.70
2018-09-22T11:08:48.147Z,8.27
2018-09-22T11:11:15.446Z,10.40
2018-09-22T11:13:42.720Z,8.93
2018-09-22T11:16:10.017Z,7.57
2018-09-22T11:18:37.293Z,11.40
2018-09-22T11:21:04.649Z,9.40
2018-09-22T11:23:31.937Z,7.57
2018-09-22T11:25:59.228Z,8.47
2018-09-22T11:28:26.512Z,8.83
2018-09-22T11:30:53.792Z,8.10
2018-09-22T11:33:21.088Z,5.53
2018-09-22T11:35:48.372Z,11.23
2018-09-22T11:38:15.704Z,10.10
2018-09-22T11:40:43.129Z,12.37
2018-09-22T11:43:10.488Z,8.30
2018-09-22T11:45:37.948Z,8.37
2018-09-22T11:48:05.264Z,5.70
2018-09-22T11:50:32.585Z,9.20
2018-09-22T11:52:59.908Z,7.37
2018-09-22T11:55:27.230Z,9.57
2018-09-22T11:57:54.532Z,11.43
2018-09-22T12:00:21.889Z,9.80
2018-09-22T12:02:49.200Z,7.00
2018-09-22T12:05:16.564Z,5.30
2018-09-22T12:07:43.865Z,10.63
2018-09-22T12:10:11.165Z,7.03
2018-09-22T12:12:38.465Z,6.60
2018-09-22T12:15:05.892Z,6.87
2018-09-22T12:17:33.208Z,7.80
2018-09-22T12:20:00.533Z,7.03
2018-09-22T12:22:27.812Z,8.77
2018-09-22T12:24:55.106Z,7.30
2018-09-22T12:27:22.412Z,4.37
2018-09-22T12:29:49.738Z,8.80
2018-09-22T12:32:17.065Z,6.57
2018-09-22T12:34:44.367Z,9.60
2018-09-22T12:37:11.657Z,7.17
2018-09-22T12:39:38.980Z,7.57
2018-09-22T12:42:06.309Z,7.40
2018-09-22T12:44:33.653Z,7.27
2018-09-22T12:47:00.949Z,7.03
2018-09-22T12:49:28.269Z,6.47
2018-09-22T12:51:55.657Z,9.43
2018-09-22T12:54:22.973Z,8.00
2018-09-22T12:56:50.273Z,7.03
2018-09-22T12:59:17.644Z,6.23
2018-09-22T13:01:44.944Z,7.27
2018-09-22T13:04:12.246Z,4.40
2018-09-22T13:06:39.516Z,4.20
2018-09-22T13:09:08.250Z,5.73
2018-09-22T13:11:35.601Z,5.53
2018-09-22T13:14:02.931Z,4.07
2018-09-22T13:16:30.228Z,5.70
2018-09-22T13:18:57.558Z,5.93
2018-09-22T13:21:24.884Z,4.40
2018-09-22T13:23:52.152Z,5.37
2018-09-22T13:26:19.453Z,3.97
2018-09-22T13:28:46.757Z,5.57
2018-09-22T13:31:14.036Z,6.03
2018-09-22T13:33:41.353Z,6.77
2018-09-22T13:36:08.700Z,6.80
2018-09-22T13:38:36.101Z,5.13
2018-09-22T13:41:03.385Z,9.53
2018-09-22T13:43:30.688Z,5.27
2018-09-22T13:45:58.013Z,8.60
2018-09-22T13:48:25.344Z,5.93
2018-09-22T13:50:52.798Z,7.27
2018-09-22T13:53:20.115Z,7.57
2018-09-22T13:55:47.433Z,8.27
2018-09-22T13:58:14.740Z,8.27
2018-09-22T14:00:42.020Z,8.27
2018-09-22T14:03:09.302Z,5.70
2018-09-22T14:05:36.595Z,4.63
2018-09-22T14:08:03.888Z,5.77
2018-09-22T14:10:31.352Z,6.43
2018-09-22T14:12:58.584Z,5.30
2018-09-22T14:15:25.900Z,5.23
2018-09-22T14:17:53.205Z,7.37
2018-09-22T14:20:20.529Z,5.03
2018-09-22T14:22:47.880Z,5.73
2018-09-22T14:25:15.194Z,6.67
2018-09-22T14:27:42.524Z,5.60
2018-09-22T14:30:12.661Z,7.20
2018-09-22T14:32:40.065Z,5.70
2018-09-22T14:35:07.433Z,6.17
2018-09-22T14:37:34.737Z,5.63
2018-09-22T14:40:02.104Z,5.07
2018-09-22T14:42:29.392Z,4.33
2018-09-22T14:44:56.696Z,3.20
2018-09-22T14:47:23.988Z,1.90
2018-09-22T14:49:51.351Z,3.20
2018-09-22T14:52:18.664Z,4.70
2018-09-22T14:54:45.964Z,4.43
2018-09-22T14:57:13.292Z,6.23
2018-09-22T14:59:40.624Z,5.03
2018-09-22T15:02:07.916Z,4.00
2018-09-22T15:04:35.321Z,7.20
2018-09-22T15:07:02.683Z,3.97
2018-09-22T15:09:29.988Z,4.47
2018-09-22T15:11:57.308Z,3.57
2018-09-22T15:14:24.924Z,4.13
2018-09-22T15:16:52.236Z,6.20
2018-09-22T15:19:19.589Z,5.17
2018-09-22T15:21:46.909Z,5.17
2018-09-22T15:24:14.200Z,7.67
2018-09-22T15:26:41.505Z,6.13
2018-09-22T15:29:08.828Z,6.60
2018-09-22T15:31:36.109Z,7.40
2018-09-22T15:34:03.433Z,7.07
2018-09-22T15:36:30.721Z,6.13
2018-09-22T15:38:58.048Z,6.47
2018-09-22T15:41:25.381Z,6.37
2018-09-22T15:43:52.669Z,6.00
2018-09-22T15:46:20.007Z,6.90
2018-09-22T15:48:47.300Z,6.57
2018-09-22T15:51:14.597Z,8.20
2018-09-22T15:53:41.868Z,6.87
2018-09-22T15:56:09.177Z,6.53
2018-09-22T15:58:36.483Z,8.53
2018-09-22T16:01:03.812Z,8.40
2018-09-22T16:03:31.093Z,7.33
2018-09-22T16:05:58.388Z,9.20
2018-09-22T16:08:25.701Z,9.50
2018-09-22T16:10:53.068Z,8.47
2018-09-22T16:13:20.369Z,10.30
2018-09-22T16:15:47.661Z,9.77
2018-09-22T16:18:14.953Z,7.90
2018-09-22T16:20:42.261Z,9.03
2018-09-22T16:23:10.346Z,11.13
2018-09-22T16:25:37.628Z,11.17
2018-09-22T16:28:04.912Z,9.40
2018-09-22T16:30:32.208Z,10.05
2018-09-22T16:32:59.628Z,8.70
2018-09-22T16:35:26.976Z,8.37
2018-09-22T16:37:54.267Z,7.40
2018-09-22T16:40:21.581Z,9.10
2018-09-22T16:42:48.884Z,9.23
2018-09-22T16:45:16.172Z,10.60
2018-09-22T16:47:43.452Z,9.23
2018-09-22T16:50:10.784Z,7.37
2018-09-22T16:52:38.068Z,8.07
2018-09-22T16:55:05.397Z,6.50
2018-09-22T16:57:32.675Z,7.37
2018-09-22T16:59:59.996Z,8.20
2018-09-22T17:02:27.284Z,8.17
2018-09-22T17:04:54.573Z,7.70
2018-09-22T17:07:21.864Z,8.53
2018-09-22T17:09:49.158Z,8.30
2018-09-22T17:12:16.436Z,8.43
2018-09-22T17:14:43.775Z,8.27
2018-09-22T17:17:11.049Z,8.93
2018-09-22T17:19:38.344Z,11.00
2018-09-22T17:22:05.707Z,9.07
2018-09-22T17:24:32.996Z,7.80
2018-09-22T17:27:00.300Z,10.27
2018-09-22T17:29:27.588Z,8.50
2018-09-22T17:31:54.888Z,6.17
2018-09-22T17:34:22.242Z,9.73
2018-09-22T17:36:49.492Z,8.10
2018-09-22T17:39:16.777Z,6.63
2018-09-22T17:41:44.108Z,6.13
2018-09-22T17:44:11.400Z,8.60
2018-09-22T17:46:38.737Z,8.20
2018-09-22T17:49:06.056Z,4.77
2018-09-22T17:51:33.412Z,9.07
2018-09-22T17:54:00.768Z,7.33
2018-09-22T17:56:28.108Z,7.20
2018-09-22T17:58:55.470Z,7.70
2018-09-22T18:01:23.007Z,7.10
2018-09-22T18:03:50.548Z,7.73
2018-09-22T18:06:18.062Z,6.97
2018-09-22T18:08:45.884Z,6.57
2018-09-22T18:11:13.540Z,8.60
2018-09-22T18:13:41.052Z,6.60
2018-09-22T18:16:08.644Z,6.33
2018-09-22T18:18:36.156Z,6.60
2018-09-22T18:21:03.649Z,8.37
2018-09-22T18:23:31.081Z,8.43
2018-09-22T18:25:58.592Z,7.67
2018-09-22T18:28:26.049Z,7.17
2018-09-22T18:40:41.125Z,9.80
2018-09-22T18:45:35.558Z,7.90
2018-09-22T18:48:02.980Z,12.20
2018-09-22T18:52:57.298Z,8.05
2018-09-22T18:55:24.746Z,11.10
2018-09-22T18:57:52.184Z,7.43
2018-09-22T19:00:19.636Z,8.17
2018-09-22T19:02:47.172Z,9.10
2018-09-22T19:05:14.632Z,8.30
2018-09-22T19:07:42.053Z,9.60
2018-09-22T19:12:36.472Z,7.20
2018-09-22T19:20:18.596Z,10.50
2018-09-22T19:22:51.116Z,9.35
2018-09-22T19:25:20.351Z,9.75
2018-09-22T19:30:50.980Z,6.70
2018-09-22T19:54:52.757Z,6.03
2018-09-22T20:02:13.509Z,3.63
2018-09-22T20:04:40.770Z,5.17
2018-09-22T20:14:28.225Z,4.20
2018-09-22T20:16:55.516Z,4.40
2018-09-22T20:19:22.821Z,2.30
2018-09-22T20:21:50.092Z,4.40
2018-09-22T20:24:17.397Z,3.80
2018-09-22T20:29:11.388Z,4.05
2018-09-22T20:38:58.872Z,4.60
2018-09-22T20:43:53.215Z,3.30
2018-09-22T20:58:34.224Z,3.20
2018-09-22T21:08:21.680Z,3.10
2018-09-22T21:15:42.500Z,3.35
2018-09-22T21:25:29.996Z,4.00
2018-09-22T21:30:23.983Z,3.30
2018-09-22T21:32:51.224Z,3.05
2018-09-22T21:37:45.231Z,3.35
2018-09-22T21:40:12.480Z,2.35
2018-09-22T21:42:39.741Z,3.50
2018-09-22T21:45:07.016Z,3.80
2018-09-22T21:47:34.272Z,5.60
2018-09-22T21:50:01.560Z,2.70
2018-09-22T21:52:28.871Z,3.13
2018-09-22T21:54:56.132Z,3.70
2018-09-22T22:02:16.912Z,3.50
2018-09-22T22:04:44.180Z,5.10
2018-09-22T22:07:11.444Z,3.65
2018-09-22T22:09:38.719Z,3.85
2018-09-22T22:14:32.736Z,4.15
2018-09-22T22:17:00.021Z,3.60
2018-09-22T22:19:27.296Z,3.30
2018-09-22T22:21:54.572Z,4.40
2018-09-22T22:29:15.396Z,2.80
2018-09-22T22:31:42.660Z,3.20
2018-09-22T22:34:09.980Z,2.40
2018-09-22T22:36:37.284Z,3.50
2018-09-22T22:46:25.952Z,4.90
2018-09-22T22:51:19.957Z,3.85
2018-09-22T22:53:47.224Z,2.70
2018-09-22T23:03:34.945Z,3.90
2018-09-22T23:18:16.044Z,4.30
2018-09-22T23:30:30.368Z,2.70
